Plymouth, Florida
Current Conditions -  °F | °C
As of 5:53 PM on Thursday 20 Nov 2014 (Local Time) from KORL Reporting Station
Clear Clear  
Wind Chill: 59°   Ceiling: Unl
Heat Index: 59°   Visibility: 10mi
Dew Point: 44°   Wind: 6mph
Humidity: 58%   Direction: 40°NE
Pressure: 30.21"   Gusts: NA
Location:  28.69°N, 81.55°W
Report Text: KORL 202253Z 04005KT 10SM CLR 15/07 A3021 RMK AO2 SLP236 T01500067
Loading
Personal Weather Stations






























Interactive Weather Map New forecast layout! Learn more

10-Day Weather Forecast

Advertisements
Track Severe Weather on mobile